Main page
METAR-TAF:

METAR-TAF

Airports :

Merrill Municipal Airport

Merrill, Wisconsin, United States

latitude: 45-11N, longitude: 089-42W, elevation: 1315 ft

Current weather observation

The report was made 14 minutes ago, at 11:55 UTC
Calm wind
Temperature 54°F
Humidity 100%
Pressure 29.90 in. Hg
Visibility: 7 miles
Scattered clouds at a height of 8000 ft
Broken clouds at a height of 9000 ft
Overcast at a height of 11000 ft
light rain

METAR: KRRL 201155Z AUTO 00000KT 7SM -RA SCT080 BKN090 OVC110 12/12 A2990 RMK AO2 P0004 60012 70012 T01210121 10148 20120 TSNO

Time: 07:09 (12:09 UTC)


TAF: missing

Weather observations and forecasts of more than 4000 airports (METAR and TAF reports).

The available stations are represented by yellow and red dots on the map.

Hover mouse over dot to see the name of the station.

Then click to see weather observations and forecasts.

To change the map : click on the green buttons with a black cross to zoom in, on the green button with a dash to zoom out, or on the green arrows for adjacent maps.


METAR-TAF: